sensor_id;sensor_type;location;lat;lon;timestamp;P1;durP1;ratioP1;P2;durP2;ratioP2
48935;SDS011;34745;52.276;10.528;2023-06-10T00:02:26;7.68;;;3.75;;
48935;SDS011;34745;52.276;10.528;2023-06-10T00:04:54;19.17;;;8.20;;
48935;SDS011;34745;52.276;10.528;2023-06-10T00:07:21;10.80;;;6.57;;
48935;SDS011;34745;52.276;10.528;2023-06-10T00:09:49;17.52;;;9.43;;
48935;SDS011;34745;52.276;10.528;2023-06-10T00:12:16;7.20;;;3.92;;
48935;SDS011;34745;52.276;10.528;2023-06-10T00:14:44;7.32;;;3.50;;
48935;SDS011;34745;52.276;10.528;2023-06-10T00:17:13;6.75;;;3.63;;
48935;SDS011;34745;52.276;10.528;2023-06-10T00:19:41;7.38;;;4.10;;
48935;SDS011;34745;52.276;10.528;2023-06-10T00:22:10;10.40;;;3.88;;
48935;SDS011;34745;52.276;10.528;2023-06-10T00:24:39;8.35;;;4.10;;
48935;SDS011;34745;52.276;10.528;2023-06-10T00:27:06;9.57;;;4.22;;
48935;SDS011;34745;52.276;10.528;2023-06-10T00:29:34;13.35;;;4.10;;
48935;SDS011;34745;52.276;10.528;2023-06-10T00:32:01;12.70;;;4.10;;
48935;SDS011;34745;52.276;10.528;2023-06-10T00:34:30;10.68;;;4.30;;
48935;SDS011;34745;52.276;10.528;2023-06-10T00:36:58;12.85;;;4.28;;
48935;SDS011;34745;52.276;10.528;2023-06-10T00:39:25;8.57;;;4.47;;
48935;SDS011;34745;52.276;10.528;2023-06-10T00:41:52;8.32;;;4.70;;
48935;SDS011;34745;52.276;10.528;2023-06-10T00:44:19;9.37;;;3.63;;
48935;SDS011;34745;52.276;10.528;2023-06-10T00:46:46;9.63;;;3.90;;
48935;SDS011;34745;52.276;10.528;2023-06-10T00:49:14;13.98;;;4.53;;
48935;SDS011;34745;52.276;10.528;2023-06-10T00:51:42;11.18;;;4.28;;
48935;SDS011;34745;52.276;10.528;2023-06-10T00:54:10;9.93;;;4.20;;
48935;SDS011;34745;52.276;10.528;2023-06-10T00:56:39;9.53;;;4.30;;
48935;SDS011;34745;52.276;10.528;2023-06-10T00:59:09;11.87;;;4.17;;
48935;SDS011;34745;52.276;10.528;2023-06-10T01:01:36;11.53;;;4.60;;
48935;SDS011;34745;52.276;10.528;2023-06-10T01:04:05;10.07;;;4.43;;
48935;SDS011;34745;52.276;10.528;2023-06-10T01:06:35;8.97;;;4.23;;
48935;SDS011;34745;52.276;10.528;2023-06-10T01:09:17;11.90;;;6.20;;
48935;SDS011;34745;52.276;10.528;2023-06-10T01:11:50;15.07;;;5.77;;
48935;SDS011;34745;52.276;10.528;2023-06-10T01:14:24;17.13;;;6.80;;
48935;SDS011;34745;52.276;10.528;2023-06-10T01:16:52;9.27;;;4.40;;
48935;SDS011;34745;52.276;10.528;2023-06-10T01:19:20;17.63;;;4.27;;
48935;SDS011;34745;52.276;10.528;2023-06-10T01:21:52;8.63;;;4.93;;
48935;SDS011;34745;52.276;10.528;2023-06-10T01:24:21;9.07;;;4.60;;
48935;SDS011;34745;52.276;10.528;2023-06-10T01:26:49;10.07;;;4.33;;
48935;SDS011;34745;52.276;10.528;2023-06-10T01:29:19;11.63;;;4.60;;
48935;SDS011;34745;52.276;10.528;2023-06-10T01:31:52;10.73;;;4.67;;
48935;SDS011;34745;52.276;10.528;2023-06-10T01:34:24;10.00;;;4.97;;
48935;SDS011;34745;52.276;10.528;2023-06-10T01:40:22;11.47;;;4.90;;
48935;SDS011;34745;52.276;10.528;2023-06-10T01:42:50;11.50;;;4.70;;
48935;SDS011;34745;52.276;10.528;2023-06-10T01:45:18;18.33;;;5.47;;
48935;SDS011;34745;52.276;10.528;2023-06-10T01:47:46;13.13;;;5.87;;
48935;SDS011;34745;52.276;10.528;2023-06-10T01:50:13;10.07;;;5.20;;
48935;SDS011;34745;52.276;10.528;2023-06-10T01:52:40;12.03;;;5.20;;
48935;SDS011;34745;52.276;10.528;2023-06-10T01:55:08;10.67;;;4.97;;
48935;SDS011;34745;52.276;10.528;2023-06-10T01:57:36;11.30;;;4.73;;
48935;SDS011;34745;52.276;10.528;2023-06-10T02:00:04;9.13;;;4.77;;
48935;SDS011;34745;52.276;10.528;2023-06-10T02:02:32;12.17;;;5.20;;
48935;SDS011;34745;52.276;10.528;2023-06-10T02:05:00;13.77;;;4.40;;
48935;SDS011;34745;52.276;10.528;2023-06-10T02:07:27;11.37;;;5.13;;
48935;SDS011;34745;52.276;10.528;2023-06-10T02:09:54;12.20;;;5.03;;
48935;SDS011;34745;52.276;10.528;2023-06-10T02:12:21;12.67;;;5.17;;
48935;SDS011;34745;52.276;10.528;2023-06-10T02:14:50;10.37;;;5.40;;
48935;SDS011;34745;52.276;10.528;2023-06-10T02:17:17;12.93;;;4.73;;
48935;SDS011;34745;52.276;10.528;2023-06-10T02:19:44;15.23;;;7.13;;
48935;SDS011;34745;52.276;10.528;2023-06-10T02:22:20;16.37;;;5.97;;
48935;SDS011;34745;52.276;10.528;2023-06-10T02:24:48;11.83;;;5.67;;
48935;SDS011;34745;52.276;10.528;2023-06-10T02:27:15;9.43;;;4.77;;
48935;SDS011;34745;52.276;10.528;2023-06-10T02:29:43;10.50;;;5.30;;
48935;SDS011;34745;52.276;10.528;2023-06-10T02:32:11;9.90;;;5.33;;
48935;SDS011;34745;52.276;10.528;2023-06-10T02:34:39;10.57;;;5.10;;
48935;SDS011;34745;52.276;10.528;2023-06-10T02:37:06;11.20;;;5.80;;
48935;SDS011;34745;52.276;10.528;2023-06-10T02:39:34;9.00;;;4.77;;
48935;SDS011;34745;52.276;10.528;2023-06-10T02:42:01;11.73;;;5.40;;
48935;SDS011;34745;52.276;10.528;2023-06-10T02:44:28;11.17;;;5.63;;
48935;SDS011;34745;52.276;10.528;2023-06-10T02:46:55;8.60;;;5.40;;
48935;SDS011;34745;52.276;10.528;2023-06-10T02:49:23;13.67;;;5.83;;
48935;SDS011;34745;52.276;10.528;2023-06-10T02:51:50;10.70;;;5.57;;
48935;SDS011;34745;52.276;10.528;2023-06-10T02:54:20;12.40;;;6.03;;
48935;SDS011;34745;52.276;10.528;2023-06-10T02:56:47;12.87;;;5.70;;
48935;SDS011;34745;52.276;10.528;2023-06-10T02:59:14;15.17;;;6.07;;
48935;SDS011;34745;52.276;10.528;2023-06-10T03:01:42;14.87;;;5.83;;
48935;SDS011;34745;52.276;10.528;2023-06-10T03:04:09;12.93;;;6.20;;
48935;SDS011;34745;52.276;10.528;2023-06-10T03:06:41;11.20;;;5.87;;
48935;SDS011;34745;52.276;10.528;2023-06-10T03:09:09;13.13;;;5.70;;
48935;SDS011;34745;52.276;10.528;2023-06-10T03:11:36;11.20;;;6.13;;
48935;SDS011;34745;52.276;10.528;2023-06-10T03:14:03;14.20;;;5.90;;
48935;SDS011;34745;52.276;10.528;2023-06-10T03:16:31;12.90;;;6.00;;
48935;SDS011;34745;52.276;10.528;2023-06-10T03:18:58;14.97;;;5.80;;
48935;SDS011;34745;52.276;10.528;2023-06-10T03:21:26;12.80;;;5.67;;
48935;SDS011;34745;52.276;10.528;2023-06-10T03:23:55;14.40;;;5.87;;
48935;SDS011;34745;52.276;10.528;2023-06-10T03:26:22;15.40;;;6.53;;
48935;SDS011;34745;52.276;10.528;2023-06-10T03:28:49;13.53;;;5.57;;
48935;SDS011;34745;52.276;10.528;2023-06-10T03:31:16;12.43;;;5.87;;
48935;SDS011;34745;52.276;10.528;2023-06-10T03:33:43;11.67;;;6.03;;
48935;SDS011;34745;52.276;10.528;2023-06-10T03:36:10;13.43;;;5.90;;
48935;SDS011;34745;52.276;10.528;2023-06-10T03:38:37;13.93;;;5.93;;
48935;SDS011;34745;52.276;10.528;2023-06-10T03:41:06;12.03;;;5.90;;
48935;SDS011;34745;52.276;10.528;2023-06-10T03:43:33;12.13;;;6.10;;
48935;SDS011;34745;52.276;10.528;2023-06-10T03:46:00;12.00;;;5.97;;
48935;SDS011;34745;52.276;10.528;2023-06-10T03:48:27;10.40;;;5.67;;
48935;SDS011;34745;52.276;10.528;2023-06-10T03:50:54;14.83;;;6.17;;
48935;SDS011;34745;52.276;10.528;2023-06-10T03:53:21;13.20;;;6.57;;
48935;SDS011;34745;52.276;10.528;2023-06-10T03:55:48;15.43;;;6.63;;
48935;SDS011;34745;52.276;10.528;2023-06-10T03:58:16;18.50;;;6.47;;
48935;SDS011;34745;52.276;10.528;2023-06-10T04:00:44;18.40;;;6.00;;
48935;SDS011;34745;52.276;10.528;2023-06-10T04:03:12;14.47;;;6.10;;
48935;SDS011;34745;52.276;10.528;2023-06-10T04:05:41;12.63;;;6.13;;
48935;SDS011;34745;52.276;10.528;2023-06-10T04:08:08;11.10;;;5.50;;
48935;SDS011;34745;52.276;10.528;2023-06-10T04:10:35;13.90;;;6.23;;
48935;SDS011;34745;52.276;10.528;2023-06-10T04:13:02;9.60;;;5.73;;
48935;SDS011;34745;52.276;10.528;2023-06-10T04:15:31;12.50;;;5.80;;
48935;SDS011;34745;52.276;10.528;2023-06-10T04:18:01;16.57;;;6.27;;
48935;SDS011;34745;52.276;10.528;2023-06-10T04:20:28;11.80;;;6.20;;
48935;SDS011;34745;52.276;10.528;2023-06-10T04:22:55;13.77;;;6.17;;
48935;SDS011;34745;52.276;10.528;2023-06-10T04:25:22;12.77;;;6.27;;
48935;SDS011;34745;52.276;10.528;2023-06-10T04:27:49;10.60;;;6.23;;
48935;SDS011;34745;52.276;10.528;2023-06-10T04:30:16;8.70;;;5.70;;
48935;SDS011;34745;52.276;10.528;2023-06-10T04:32:45;10.83;;;5.93;;
48935;SDS011;34745;52.276;10.528;2023-06-10T04:35:13;11.87;;;5.93;;
48935;SDS011;34745;52.276;10.528;2023-06-10T04:37:41;15.03;;;6.20;;
48935;SDS011;34745;52.276;10.528;2023-06-10T04:40:09;9.60;;;5.53;;
48935;SDS011;34745;52.276;10.528;2023-06-10T04:42:37;14.67;;;6.20;;
48935;SDS011;34745;52.276;10.528;2023-06-10T04:45:04;8.30;;;5.40;;
48935;SDS011;34745;52.276;10.528;2023-06-10T04:47:33;11.50;;;6.00;;
48935;SDS011;34745;52.276;10.528;2023-06-10T04:50:02;14.03;;;5.90;;
48935;SDS011;34745;52.276;10.528;2023-06-10T04:52:29;12.40;;;6.27;;
48935;SDS011;34745;52.276;10.528;2023-06-10T04:54:57;8.03;;;5.43;;
48935;SDS011;34745;52.276;10.528;2023-06-10T04:57:25;15.67;;;5.40;;
48935;SDS011;34745;52.276;10.528;2023-06-10T04:59:52;14.13;;;6.40;;
48935;SDS011;34745;52.276;10.528;2023-06-10T05:02:19;11.90;;;5.67;;
48935;SDS011;34745;52.276;10.528;2023-06-10T05:04:46;16.90;;;7.03;;
48935;SDS011;34745;52.276;10.528;2023-06-10T05:07:15;15.80;;;6.00;;
48935;SDS011;34745;52.276;10.528;2023-06-10T05:09:42;11.90;;;5.60;;
48935;SDS011;34745;52.276;10.528;2023-06-10T05:12:09;10.37;;;6.27;;
48935;SDS011;34745;52.276;10.528;2023-06-10T05:14:36;13.13;;;5.40;;
48935;SDS011;34745;52.276;10.528;2023-06-10T05:17:03;12.87;;;5.50;;
48935;SDS011;34745;52.276;10.528;2023-06-10T05:19:32;14.30;;;6.10;;
48935;SDS011;34745;52.276;10.528;2023-06-10T05:21:59;14.27;;;5.90;;
48935;SDS011;34745;52.276;10.528;2023-06-10T05:24:28;11.57;;;5.53;;
48935;SDS011;34745;52.276;10.528;2023-06-10T05:26:55;11.03;;;5.63;;
48935;SDS011;34745;52.276;10.528;2023-06-10T05:29:22;9.93;;;5.97;;
48935;SDS011;34745;52.276;10.528;2023-06-10T05:31:49;16.20;;;6.40;;
48935;SDS011;34745;52.276;10.528;2023-06-10T05:34:16;12.33;;;5.77;;
48935;SDS011;34745;52.276;10.528;2023-06-10T05:36:43;10.07;;;5.87;;
48935;SDS011;34745;52.276;10.528;2023-06-10T05:39:10;15.37;;;5.97;;
48935;SDS011;34745;52.276;10.528;2023-06-10T05:41:39;12.50;;;5.70;;
48935;SDS011;34745;52.276;10.528;2023-06-10T05:44:06;14.10;;;5.50;;
48935;SDS011;34745;52.276;10.528;2023-06-10T05:46:33;13.60;;;5.87;;
48935;SDS011;34745;52.276;10.528;2023-06-10T05:49:01;11.10;;;6.03;;
48935;SDS011;34745;52.276;10.528;2023-06-10T05:51:28;13.33;;;6.17;;
48935;SDS011;34745;52.276;10.528;2023-06-10T05:53:55;13.67;;;5.63;;
48935;SDS011;34745;52.276;10.528;2023-06-10T05:56:22;16.03;;;6.30;;
48935;SDS011;34745;52.276;10.528;2023-06-10T05:58:51;20.00;;;5.70;;
48935;SDS011;34745;52.276;10.528;2023-06-10T06:01:18;14.07;;;5.93;;
48935;SDS011;34745;52.276;10.528;2023-06-10T06:03:45;15.10;;;6.20;;
48935;SDS011;34745;52.276;10.528;2023-06-10T06:06:12;15.93;;;6.10;;
48935;SDS011;34745;52.276;10.528;2023-06-10T06:08:39;10.00;;;5.83;;
48935;SDS011;34745;52.276;10.528;2023-06-10T06:11:06;15.37;;;6.07;;
48935;SDS011;34745;52.276;10.528;2023-06-10T06:13:33;10.87;;;5.73;;
48935;SDS011;34745;52.276;10.528;2023-06-10T06:16:02;14.93;;;6.10;;
48935;SDS011;34745;52.276;10.528;2023-06-10T06:18:29;19.53;;;5.73;;
48935;SDS011;34745;52.276;10.528;2023-06-10T06:20:56;16.57;;;5.80;;
48935;SDS011;34745;52.276;10.528;2023-06-10T06:23:23;15.07;;;6.23;;
48935;SDS011;34745;52.276;10.528;2023-06-10T06:25:50;15.83;;;5.77;;
48935;SDS011;34745;52.276;10.528;2023-06-10T06:28:17;14.07;;;5.47;;
48935;SDS011;34745;52.276;10.528;2023-06-10T06:30:45;13.63;;;5.45;;
48935;SDS011;34745;52.276;10.528;2023-06-10T06:33:14;21.25;;;5.95;;
48935;SDS011;34745;52.276;10.528;2023-06-10T06:35:41;10.48;;;5.70;;
48935;SDS011;34745;52.276;10.528;2023-06-10T06:38:08;12.55;;;5.57;;
48935;SDS011;34745;52.276;10.528;2023-06-10T06:40:35;13.73;;;5.55;;
48935;SDS011;34745;52.276;10.528;2023-06-10T06:43:01;18.88;;;6.32;;
48935;SDS011;34745;52.276;10.528;2023-06-10T06:45:29;8.15;;;5.30;;
48935;SDS011;34745;52.276;10.528;2023-06-10T06:47:56;13.13;;;6.20;;
48935;SDS011;34745;52.276;10.528;2023-06-10T06:50:24;11.70;;;5.55;;
48935;SDS011;34745;52.276;10.528;2023-06-10T06:52:51;13.48;;;5.78;;
48935;SDS011;34745;52.276;10.528;2023-06-10T06:55:18;11.82;;;5.95;;
48935;SDS011;34745;52.276;10.528;2023-06-10T06:57:46;11.98;;;5.80;;
48935;SDS011;34745;52.276;10.528;2023-06-10T07:00:13;11.75;;;6.18;;
48935;SDS011;34745;52.276;10.528;2023-06-10T07:02:41;17.20;;;5.35;;
48935;SDS011;34745;52.276;10.528;2023-06-10T07:05:08;9.30;;;5.68;;
48935;SDS011;34745;52.276;10.528;2023-06-10T07:07:37;11.48;;;5.90;;
48935;SDS011;34745;52.276;10.528;2023-06-10T07:10:04;12.15;;;5.45;;
48935;SDS011;34745;52.276;10.528;2023-06-10T07:12:32;8.82;;;5.65;;
48935;SDS011;34745;52.276;10.528;2023-06-10T07:14:59;12.85;;;5.00;;
48935;SDS011;34745;52.276;10.528;2023-06-10T07:17:26;14.10;;;5.30;;
48935;SDS011;34745;52.276;10.528;2023-06-10T07:19:53;14.18;;;5.55;;
48935;SDS011;34745;52.276;10.528;2023-06-10T07:22:23;11.93;;;5.63;;
48935;SDS011;34745;52.276;10.528;2023-06-10T07:24:53;11.73;;;5.10;;
48935;SDS011;34745;52.276;10.528;2023-06-10T07:27:22;11.88;;;5.38;;
48935;SDS011;34745;52.276;10.528;2023-06-10T07:29:49;11.65;;;4.97;;
48935;SDS011;34745;52.276;10.528;2023-06-10T07:32:16;8.85;;;4.90;;
48935;SDS011;34745;52.276;10.528;2023-06-10T07:34:44;10.88;;;5.25;;
48935;SDS011;34745;52.276;10.528;2023-06-10T07:37:12;10.98;;;5.10;;
48935;SDS011;34745;52.276;10.528;2023-06-10T07:39:38;8.38;;;4.90;;
48935;SDS011;34745;52.276;10.528;2023-06-10T07:42:07;11.93;;;5.53;;
48935;SDS011;34745;52.276;10.528;2023-06-10T07:44:34;15.48;;;5.93;;
48935;SDS011;34745;52.276;10.528;2023-06-10T07:47:02;11.43;;;5.35;;
48935;SDS011;34745;52.276;10.528;2023-06-10T07:49:29;18.38;;;5.50;;
48935;SDS011;34745;52.276;10.528;2023-06-10T07:51:57;10.93;;;4.78;;
48935;SDS011;34745;52.276;10.528;2023-06-10T07:54:24;9.43;;;5.13;;
48935;SDS011;34745;52.276;10.528;2023-06-10T07:56:55;12.02;;;5.00;;
48935;SDS011;34745;52.276;10.528;2023-06-10T07:59:23;12.00;;;5.35;;
48935;SDS011;34745;52.276;10.528;2023-06-10T08:01:52;9.30;;;5.32;;
48935;SDS011;34745;52.276;10.528;2023-06-10T08:04:19;10.52;;;5.28;;
48935;SDS011;34745;52.276;10.528;2023-06-10T08:06:47;11.32;;;5.05;;
48935;SDS011;34745;52.276;10.528;2023-06-10T08:09:14;12.95;;;5.40;;
48935;SDS011;34745;52.276;10.528;2023-06-10T08:11:41;12.77;;;5.50;;
48935;SDS011;34745;52.276;10.528;2023-06-10T08:14:08;11.30;;;5.45;;
48935;SDS011;34745;52.276;10.528;2023-06-10T08:16:37;13.23;;;5.45;;
48935;SDS011;34745;52.276;10.528;2023-06-10T08:19:04;13.90;;;5.53;;
48935;SDS011;34745;52.276;10.528;2023-06-10T08:21:31;10.05;;;5.20;;
48935;SDS011;34745;52.276;10.528;2023-06-10T08:23:59;12.80;;;6.97;;
48935;SDS011;34745;52.276;10.528;2023-06-10T08:26:25;11.00;;;5.45;;
48935;SDS011;34745;52.276;10.528;2023-06-10T08:28:53;13.52;;;5.90;;
48935;SDS011;34745;52.276;10.528;2023-06-10T08:31:20;13.13;;;7.43;;
48935;SDS011;34745;52.276;10.528;2023-06-10T08:33:49;12.93;;;6.63;;
48935;SDS011;34745;52.276;10.528;2023-06-10T08:36:16;8.75;;;5.28;;
48935;SDS011;34745;52.276;10.528;2023-06-10T08:38:43;12.02;;;6.07;;
48935;SDS011;34745;52.276;10.528;2023-06-10T08:41:12;10.73;;;5.22;;
48935;SDS011;34745;52.276;10.528;2023-06-10T08:43:42;12.95;;;5.50;;
48935;SDS011;34745;52.276;10.528;2023-06-10T08:46:11;13.57;;;6.03;;
48935;SDS011;34745;52.276;10.528;2023-06-10T08:48:42;9.52;;;4.90;;
48935;SDS011;34745;52.276;10.528;2023-06-10T08:51:12;17.38;;;6.00;;
48935;SDS011;34745;52.276;10.528;2023-06-10T08:53:43;9.98;;;5.30;;
48935;SDS011;34745;52.276;10.528;2023-06-10T08:56:15;11.23;;;5.63;;
48935;SDS011;34745;52.276;10.528;2023-06-10T08:58:43;10.55;;;5.60;;
48935;SDS011;34745;52.276;10.528;2023-06-10T09:01:11;11.23;;;5.68;;
48935;SDS011;34745;52.276;10.528;2023-06-10T09:03:38;11.57;;;5.72;;
48935;SDS011;34745;52.276;10.528;2023-06-10T09:06:06;19.08;;;5.95;;
48935;SDS011;34745;52.276;10.528;2023-06-10T09:08:35;11.00;;;5.50;;
48935;SDS011;34745;52.276;10.528;2023-06-10T09:11:03;9.95;;;5.35;;
48935;SDS011;34745;52.276;10.528;2023-06-10T09:13:29;10.27;;;5.18;;
48935;SDS011;34745;52.276;10.528;2023-06-10T09:15:57;11.43;;;5.35;;
48935;SDS011;34745;52.276;10.528;2023-06-10T09:18:27;12.05;;;5.85;;
48935;SDS011;34745;52.276;10.528;2023-06-10T09:20:54;16.05;;;5.30;;
48935;SDS011;34745;52.276;10.528;2023-06-10T09:23:21;9.50;;;5.50;;
48935;SDS011;34745;52.276;10.528;2023-06-10T09:25:56;12.40;;;5.65;;
48935;SDS011;34745;52.276;10.528;2023-06-10T09:28:24;14.70;;;5.53;;
48935;SDS011;34745;52.276;10.528;2023-06-10T09:31:01;13.50;;;5.45;;
48935;SDS011;34745;52.276;10.528;2023-06-10T09:33:29;14.50;;;5.88;;
48935;SDS011;34745;52.276;10.528;2023-06-10T09:35:56;11.32;;;5.53;;
48935;SDS011;34745;52.276;10.528;2023-06-10T09:38:29;12.20;;;5.82;;
48935;SDS011;34745;52.276;10.528;2023-06-10T09:40:59;11.55;;;5.90;;
48935;SDS011;34745;52.276;10.528;2023-06-10T09:43:38;9.95;;;5.45;;
48935;SDS011;34745;52.276;10.528;2023-06-10T09:46:06;10.32;;;5.57;;
48935;SDS011;34745;52.276;10.528;2023-06-10T09:48:40;10.38;;;5.97;;
48935;SDS011;34745;52.276;10.528;2023-06-10T09:51:09;14.43;;;5.95;;
48935;SDS011;34745;52.276;10.528;2023-06-10T09:53:37;9.57;;;5.50;;
48935;SDS011;34745;52.276;10.528;2023-06-10T09:56:05;8.13;;;5.43;;
48935;SDS011;34745;52.276;10.528;2023-06-10T09:58:36;11.35;;;5.72;;
48935;SDS011;34745;52.276;10.528;2023-06-10T10:01:04;10.43;;;5.93;;
48935;SDS011;34745;52.276;10.528;2023-06-10T10:03:32;16.85;;;8.73;;
48935;SDS011;34745;52.276;10.528;2023-06-10T10:05:59;13.23;;;7.00;;
48935;SDS011;34745;52.276;10.528;2023-06-10T10:08:27;15.55;;;6.03;;
48935;SDS011;34745;52.276;10.528;2023-06-10T10:10:56;10.20;;;7.05;;
48935;SDS011;34745;52.276;10.528;2023-06-10T10:13:25;9.95;;;6.15;;
48935;SDS011;34745;52.276;10.528;2023-06-10T10:15:54;8.90;;;5.40;;
48935;SDS011;34745;52.276;10.528;2023-06-10T10:18:26;14.32;;;6.30;;
48935;SDS011;34745;52.276;10.528;2023-06-10T10:20:57;11.50;;;6.40;;
48935;SDS011;34745;52.276;10.528;2023-06-10T10:23:31;10.32;;;6.13;;
48935;SDS011;34745;52.276;10.528;2023-06-10T10:26:06;12.15;;;6.22;;
48935;SDS011;34745;52.276;10.528;2023-06-10T10:28:40;8.95;;;6.05;;
48935;SDS011;34745;52.276;10.528;2023-06-10T10:31:12;10.55;;;6.13;;
48935;SDS011;34745;52.276;10.528;2023-06-10T10:33:48;17.85;;;6.25;;
48935;SDS011;34745;52.276;10.528;2023-06-10T10:36:21;11.07;;;5.93;;
48935;SDS011;34745;52.276;10.528;2023-06-10T10:38:48;9.43;;;5.63;;
48935;SDS011;34745;52.276;10.528;2023-06-10T10:41:18;9.55;;;6.15;;
48935;SDS011;34745;52.276;10.528;2023-06-10T10:43:48;7.93;;;5.65;;
48935;SDS011;34745;52.276;10.528;2023-06-10T10:46:17;11.70;;;6.30;;
48935;SDS011;34745;52.276;10.528;2023-06-10T10:48:45;11.20;;;5.93;;
48935;SDS011;34745;52.276;10.528;2023-06-10T10:51:18;13.40;;;5.85;;
48935;SDS011;34745;52.276;10.528;2023-06-10T10:56:38;11.90;;;5.63;;
48935;SDS011;34745;52.276;10.528;2023-06-10T10:59:06;11.95;;;5.55;;
48935;SDS011;34745;52.276;10.528;2023-06-10T11:01:39;8.50;;;5.60;;
48935;SDS011;34745;52.276;10.528;2023-06-10T11:04:08;14.13;;;5.93;;
48935;SDS011;34745;52.276;10.528;2023-06-10T11:06:36;15.18;;;5.28;;
48935;SDS011;34745;52.276;10.528;2023-06-10T11:09:24;13.27;;;5.65;;
48935;SDS011;34745;52.276;10.528;2023-06-10T11:11:52;12.57;;;5.25;;
48935;SDS011;34745;52.276;10.528;2023-06-10T11:14:27;8.98;;;5.57;;
48935;SDS011;34745;52.276;10.528;2023-06-10T11:16:56;12.23;;;5.90;;
48935;SDS011;34745;52.276;10.528;2023-06-10T11:19:33;9.63;;;5.88;;
48935;SDS011;34745;52.276;10.528;2023-06-10T11:22:02;9.90;;;5.97;;
48935;SDS011;34745;52.276;10.528;2023-06-10T11:24:33;7.10;;;5.45;;
48935;SDS011;34745;52.276;10.528;2023-06-10T11:27:17;9.05;;;5.78;;
48935;SDS011;34745;52.276;10.528;2023-06-10T11:29:56;10.60;;;5.82;;
48935;SDS011;34745;52.276;10.528;2023-06-10T11:32:45;9.77;;;5.30;;
48935;SDS011;34745;52.276;10.528;2023-06-10T11:35:18;7.28;;;5.43;;
48935;SDS011;34745;52.276;10.528;2023-06-10T11:37:47;11.88;;;6.43;;
48935;SDS011;34745;52.276;10.528;2023-06-10T11:40:15;10.95;;;5.47;;
48935;SDS011;34745;52.276;10.528;2023-06-10T11:42:42;10.05;;;5.50;;
48935;SDS011;34745;52.276;10.528;2023-06-10T11:45:14;10.48;;;5.78;;
48935;SDS011;34745;52.276;10.528;2023-06-10T11:47:54;10.90;;;5.22;;
48935;SDS011;34745;52.276;10.528;2023-06-10T11:50:27;8.95;;;5.30;;
48935;SDS011;34745;52.276;10.528;2023-06-10T11:52:55;9.38;;;5.85;;
48935;SDS011;34745;52.276;10.528;2023-06-10T11:55:24;8.48;;;5.00;;
48935;SDS011;34745;52.276;10.528;2023-06-10T11:57:52;15.68;;;5.10;;
48935;SDS011;34745;52.276;10.528;2023-06-10T12:00:25;9.15;;;5.63;;
48935;SDS011;34745;52.276;10.528;2023-06-10T12:02:56;8.55;;;4.82;;
48935;SDS011;34745;52.276;10.528;2023-06-10T12:05:24;10.43;;;5.28;;
48935;SDS011;34745;52.276;10.528;2023-06-10T12:10:40;9.95;;;5.18;;
48935;SDS011;34745;52.276;10.528;2023-06-10T12:13:08;9.10;;;5.50;;
48935;SDS011;34745;52.276;10.528;2023-06-10T12:15:37;7.38;;;5.45;;
48935;SDS011;34745;52.276;10.528;2023-06-10T12:18:04;13.75;;;7.50;;
48935;SDS011;34745;52.276;10.528;2023-06-10T12:20:31;11.00;;;6.03;;
48935;SDS011;34745;52.276;10.528;2023-06-10T12:23:08;7.75;;;5.38;;
48935;SDS011;34745;52.276;10.528;2023-06-10T12:25:36;10.65;;;5.60;;
48935;SDS011;34745;52.276;10.528;2023-06-10T12:28:09;6.15;;;5.03;;
48935;SDS011;34745;52.276;10.528;2023-06-10T12:30:38;9.57;;;4.70;;
48935;SDS011;34745;52.276;10.528;2023-06-10T12:33:05;7.15;;;5.07;;
48935;SDS011;34745;52.276;10.528;2023-06-10T12:35:46;8.23;;;4.88;;
48935;SDS011;34745;52.276;10.528;2023-06-10T12:38:14;8.32;;;4.95;;
48935;SDS011;34745;52.276;10.528;2023-06-10T12:40:48;12.25;;;4.72;;
48935;SDS011;34745;52.276;10.528;2023-06-10T12:43:19;7.00;;;4.90;;
48935;SDS011;34745;52.276;10.528;2023-06-10T12:45:47;6.20;;;4.65;;
48935;SDS011;34745;52.276;10.528;2023-06-10T12:48:19;9.77;;;4.97;;
48935;SDS011;34745;52.276;10.528;2023-06-10T12:50:50;8.80;;;4.82;;
48935;SDS011;34745;52.276;10.528;2023-06-10T12:53:19;6.90;;;4.53;;
48935;SDS011;34745;52.276;10.528;2023-06-10T12:55:47;5.57;;;4.47;;
48935;SDS011;34745;52.276;10.528;2023-06-10T12:58:14;7.28;;;4.90;;
48935;SDS011;34745;52.276;10.528;2023-06-10T13:00:42;9.23;;;4.22;;
48935;SDS011;34745;52.276;10.528;2023-06-10T13:03:11;8.60;;;4.30;;
48935;SDS011;34745;52.276;10.528;2023-06-10T13:05:38;9.40;;;4.22;;
48935;SDS011;34745;52.276;10.528;2023-06-10T13:08:06;8.85;;;4.50;;
48935;SDS011;34745;52.276;10.528;2023-06-10T13:10:33;7.68;;;4.22;;
48935;SDS011;34745;52.276;10.528;2023-06-10T13:13:01;8.25;;;4.57;;
48935;SDS011;34745;52.276;10.528;2023-06-10T13:15:31;8.05;;;5.50;;
48935;SDS011;34745;52.276;10.528;2023-06-10T13:17:58;8.93;;;5.28;;
48935;SDS011;34745;52.276;10.528;2023-06-10T13:20:27;11.57;;;4.93;;
48935;SDS011;34745;52.276;10.528;2023-06-10T13:22:54;5.60;;;4.18;;
48935;SDS011;34745;52.276;10.528;2023-06-10T13:25:21;7.50;;;4.28;;
48935;SDS011;34745;52.276;10.528;2023-06-10T13:27:48;5.63;;;4.60;;
48935;SDS011;34745;52.276;10.528;2023-06-10T13:30:15;5.88;;;4.30;;
48935;SDS011;34745;52.276;10.528;2023-06-10T13:32:42;8.60;;;4.07;;
48935;SDS011;34745;52.276;10.528;2023-06-10T13:35:09;7.22;;;4.40;;
48935;SDS011;34745;52.276;10.528;2023-06-10T13:37:38;5.40;;;4.10;;
48935;SDS011;34745;52.276;10.528;2023-06-10T13:40:05;4.75;;;3.80;;
48935;SDS011;34745;52.276;10.528;2023-06-10T13:42:34;6.68;;;4.20;;
48935;SDS011;34745;52.276;10.528;2023-06-10T13:45:02;15.80;;;5.07;;
48935;SDS011;34745;52.276;10.528;2023-06-10T13:47:30;5.53;;;4.30;;
48935;SDS011;34745;52.276;10.528;2023-06-10T13:49:57;7.18;;;4.15;;
48935;SDS011;34745;52.276;10.528;2023-06-10T13:52:24;8.27;;;4.03;;
48935;SDS011;34745;52.276;10.528;2023-06-10T13:54:53;7.30;;;4.43;;
48935;SDS011;34745;52.276;10.528;2023-06-10T13:57:19;4.90;;;4.10;;
48935;SDS011;34745;52.276;10.528;2023-06-10T13:59:46;4.00;;;3.60;;
48935;SDS011;34745;52.276;10.528;2023-06-10T14:02:13;11.07;;;4.55;;
48935;SDS011;34745;52.276;10.528;2023-06-10T14:04:40;7.00;;;4.60;;
48935;SDS011;34745;52.276;10.528;2023-06-10T14:07:07;6.18;;;4.38;;
48935;SDS011;34745;52.276;10.528;2023-06-10T14:09:34;7.93;;;4.70;;
48935;SDS011;34745;52.276;10.528;2023-06-10T14:12:03;8.75;;;4.43;;
48935;SDS011;34745;52.276;10.528;2023-06-10T14:14:31;6.35;;;4.00;;
48935;SDS011;34745;52.276;10.528;2023-06-10T14:16:59;6.63;;;4.68;;
48935;SDS011;34745;52.276;10.528;2023-06-10T14:19:26;7.00;;;4.88;;
48935;SDS011;34745;52.276;10.528;2023-06-10T14:21:53;8.70;;;5.63;;
48935;SDS011;34745;52.276;10.528;2023-06-10T14:24:22;6.38;;;4.10;;
48935;SDS011;34745;52.276;10.528;2023-06-10T14:26:49;7.72;;;3.50;;
48935;SDS011;34745;52.276;10.528;2023-06-10T14:29:18;5.13;;;3.65;;
48935;SDS011;34745;52.276;10.528;2023-06-10T14:31:45;5.15;;;3.75;;
48935;SDS011;34745;52.276;10.528;2023-06-10T14:34:13;8.05;;;4.40;;
48935;SDS011;34745;52.276;10.528;2023-06-10T14:36:40;8.90;;;3.63;;
48935;SDS011;34745;52.276;10.528;2023-06-10T14:39:07;9.70;;;4.00;;
48935;SDS011;34745;52.276;10.528;2023-06-10T14:41:34;6.57;;;4.20;;
48935;SDS011;34745;52.276;10.528;2023-06-10T14:44:00;6.45;;;3.90;;